Time;durP1;ratioP1;P1;durP2;ratioP2;P2;SDS_P1;SDS_P2;PMS_P1;PMS_P2;Temp;Humidity;BMP_temperature;BMP_pressure;BME280_temperature;BME280_humidity;BME280_pressure;Samples;Min_cycle;Max_cycle;Signal;HPM_P1;HPM_P2
2022/08/13 00:01:12;;;;;;;2.83;1.40;;;14.40;99.90;;;;;;5065935;28;20477;-71
2022/08/13 00:03:38;;;;;;;2.88;1.23;;;14.40;99.90;;;;;;5061853;28;20438;-71
2022/08/13 00:06:08;;;;;;;2.38;1.40;;;14.30;99.90;;;;;;5063412;28;20036;-71
2022/08/13 00:08:35;;;;;;;3.33;1.35;;;14.40;99.90;;;;;;5067862;28;20032;-71
2022/08/13 00:11:04;;;;;;;2.80;1.27;;;14.60;99.90;;;;;;5063329;28;20098;-71
2022/08/13 00:13:31;;;;;;;4.10;1.60;;;14.50;99.90;;;;;;5068190;28;20032;-71
2022/08/13 00:15:59;;;;;;;4.35;1.70;;;14.50;99.90;;;;;;5070007;28;20056;-71
2022/08/13 00:18:26;;;;;;;2.92;1.55;;;14.40;99.90;;;;;;5053402;28;20072;-71
2022/08/13 00:20:54;;;;;;;2.78;1.63;;;14.50;99.90;;;;;;5064844;28;20491;-71
2022/08/13 00:23:22;;;;;;;3.60;1.60;;;14.50;99.90;;;;;;5076950;28;20040;-71
2022/08/13 00:25:54;;;;;;;3.20;1.65;;;14.40;99.90;;;;;;5074139;28;20028;-71
2022/08/13 00:28:22;;;;;;;3.17;1.23;;;14.30;99.90;;;;;;5070606;28;20058;-71
2022/08/13 00:30:48;;;;;;;2.50;1.20;;;14.40;99.90;;;;;;5070576;28;20471;-71
2022/08/13 00:33:20;;;;;;;3.35;1.58;;;14.50;99.90;;;;;;5065704;28;20063;-71
2022/08/13 00:35:47;;;;;;;3.67;1.52;;;14.60;99.90;;;;;;5075655;28;20108;-71
2022/08/13 00:38:34;;;;;;;4.50;1.35;;;14.60;99.90;;;;;;5074982;28;20367;-71
2022/08/13 00:41:00;;;;;;;3.22;1.50;;;14.50;99.90;;;;;;5065478;28;20032;-71
2022/08/13 00:43:27;;;;;;;5.00;1.20;;;14.40;99.90;;;;;;5064787;28;20032;-71
2022/08/13 00:45:54;;;;;;;5.20;1.60;;;14.40;99.90;;;;;;5071387;28;20028;-71
2022/08/13 00:51:08;;;;;;;2.00;1.10;;;14.60;99.90;;;;;;5072125;28;20123;-71
2022/08/13 00:53:36;;;;;;;2.88;1.48;;;14.60;99.90;;;;;;5069285;28;20021;-71
2022/08/13 00:56:02;;;;;;;3.35;1.65;;;14.60;99.90;;;;;;5055312;28;20059;-71
2022/08/13 00:58:28;;;;;;;2.65;1.48;;;14.40;99.90;;;;;;5069007;28;20665;-71
2022/08/13 01:00:57;;;;;;;3.67;1.63;;;14.20;99.90;;;;;;5063926;28;20021;-71
2022/08/13 01:03:24;;;;;;;2.83;1.70;;;14.30;99.90;;;;;;5074506;28;20159;-71
2022/08/13 01:05:50;;;;;;;2.72;1.40;;;14.40;99.90;;;;;;5064278;28;20394;-72
2022/08/13 01:08:19;;;;;;;2.83;1.55;;;14.10;99.90;;;;;;5075364;28;20032;-71
2022/08/13 01:10:47;;;;;;;3.75;1.48;;;14.10;99.90;;;;;;5074367;28;20028;-71
2022/08/13 01:13:14;;;;;;;3.78;1.73;;;14.10;99.90;;;;;;5073190;28;20021;-71
2022/08/13 01:15:41;;;;;;;3.58;1.67;;;14.10;99.90;;;;;;5068370;28;20024;-71
2022/08/13 01:18:19;;;;;;;5.38;1.40;;;14.30;99.90;;;;;;5070511;28;20047;-71
2022/08/13 01:20:58;;;;;;;2.38;1.33;;;14.20;99.90;;;;;;5068211;28;20033;-71
2022/08/13 01:23:24;;;;;;;3.00;1.50;;;14.10;99.90;;;;;;5075595;28;20033;-71
2022/08/13 01:25:50;;;;;;;2.58;1.27;;;14.10;99.90;;;;;;5071884;28;20039;-71
2022/08/13 01:28:18;;;;;;;3.97;1.77;;;14.10;99.90;;;;;;5057406;28;20037;-71
2022/08/13 01:30:46;;;;;;;5.60;1.90;;;14.30;99.90;;;;;;5067302;28;20016;-71
2022/08/13 01:33:16;;;;;;;3.47;1.90;;;14.40;99.90;;;;;;5067109;28;20119;-71
2022/08/13 01:35:42;;;;;;;3.22;1.67;;;14.20;99.90;;;;;;5072211;28;20486;-71
2022/08/13 01:38:08;;;;;;;3.88;1.73;;;14.30;99.90;;;;;;5068979;28;20040;-71
2022/08/13 01:40:34;;;;;;;3.40;1.88;;;14.20;99.90;;;;;;5068029;28;20108;-71
2022/08/13 01:43:02;;;;;;;6.28;1.75;;;14.10;99.90;;;;;;5071339;28;20047;-71
2022/08/13 01:45:30;;;;;;;3.20;1.60;;;14.10;99.90;;;;;;5063130;28;20107;-71
2022/08/13 01:50:41;;;;;;;4.05;2.28;;;14.20;99.90;;;;;;5068269;28;20144;-71
2022/08/13 01:53:11;;;;;;;3.67;1.80;;;14.10;99.90;;;;;;5066042;28;20509;-71
2022/08/13 01:55:39;;;;;;;2.88;1.50;;;14.10;99.90;;;;;;5060757;28;20055;-71
2022/08/13 01:58:17;;;;;;;3.30;1.60;;;14.10;99.90;;;;;;5054456;28;20467;-71
2022/08/13 02:00:44;;;;;;;3.72;2.05;;;14.20;99.90;;;;;;5058684;28;20028;-71
2022/08/13 02:03:16;;;;;;;3.47;1.90;;;14.40;99.90;;;;;;5046116;28;20029;-71
2022/08/13 02:05:42;;;;;;;4.07;1.40;;;14.50;99.90;;;;;;5060838;28;20063;-71
2022/08/13 02:08:11;;;;;;;3.92;1.83;;;14.60;99.90;;;;;;5067885;28;20041;-71
2022/08/13 02:10:39;;;;;;;2.55;1.33;;;14.50;99.90;;;;;;5067888;28;20025;-71
2022/08/13 02:13:11;;;;;;;3.38;1.50;;;14.30;99.90;;;;;;5070082;28;20032;-71
2022/08/13 02:15:39;;;;;;;5.03;1.45;;;14.20;99.90;;;;;;5065954;28;20032;-71
2022/08/13 02:18:07;;;;;;;2.65;1.10;;;14.30;99.90;;;;;;5065282;28;20021;-71
2022/08/13 02:20:34;;;;;;;2.60;1.40;;;14.40;99.90;;;;;;5061096;28;20048;-71
2022/08/13 02:23:02;;;;;;;3.38;1.50;;;14.40;99.90;;;;;;5069447;28;21912;-70
2022/08/13 02:25:29;;;;;;;3.75;1.70;;;14.30;99.90;;;;;;5066849;28;20052;-71
2022/08/13 02:27:56;;;;;;;2.70;1.27;;;14.50;99.90;;;;;;5059376;28;20041;-71
2022/08/13 02:30:27;;;;;;;2.85;1.60;;;14.50;99.90;;;;;;5059669;28;20544;-71
2022/08/13 02:32:53;;;;;;;2.70;1.50;;;14.50;99.90;;;;;;5060882;28;20028;-71
2022/08/13 02:35:20;;;;;;;3.63;1.83;;;14.60;99.90;;;;;;5067989;28;20028;-71
2022/08/13 02:37:47;;;;;;;5.75;1.73;;;14.60;99.90;;;;;;5063628;28;20021;-71
2022/08/13 02:42:59;;;;;;;2.60;1.40;;;14.60;99.90;;;;;;5068951;28;20117;-71
2022/08/13 02:45:27;;;;;;;3.72;1.70;;;14.50;99.90;;;;;;5070141;28;20048;-71
2022/08/13 02:47:54;;;;;;;3.28;1.40;;;14.30;99.90;;;;;;5068463;28;20389;-71
2022/08/13 02:50:21;;;;;;;2.22;1.13;;;13.90;99.90;;;;;;5059667;28;20035;-71
2022/08/13 02:52:51;;;;;;;4.07;1.63;;;13.80;99.90;;;;;;5070416;28;20042;-71
2022/08/13 02:55:22;;;;;;;2.85;1.38;;;13.80;99.90;;;;;;5068655;28;20062;-71
2022/08/13 02:57:49;;;;;;;2.70;1.52;;;14.10;99.90;;;;;;5066589;28;20107;-71
2022/08/13 03:00:17;;;;;;;3.33;1.83;;;14.10;99.90;;;;;;5066816;28;20462;-71
2022/08/13 03:02:44;;;;;;;3.00;1.63;;;13.90;99.90;;;;;;5062468;28;20051;-71
2022/08/13 03:05:13;;;;;;;2.83;1.40;;;14.00;99.90;;;;;;5051213;28;20092;-71
2022/08/13 03:08:13;;;;;;;3.08;2.10;;;14.00;99.90;;;;;;5061658;28;20114;-71
2022/08/13 03:10:40;;;;;;;2.67;1.27;;;13.90;99.90;;;;;;5054886;28;20374;-71
2022/08/13 03:13:19;;;;;;;3.15;1.27;;;13.80;99.90;;;;;;5048520;28;20045;-71
2022/08/13 03:15:49;;;;;;;2.22;1.20;;;13.90;99.90;;;;;;5065441;28;20039;-71
2022/08/13 03:18:14;;;;;;;2.70;1.38;;;13.80;99.90;;;;;;5045671;28;20048;-71
2022/08/13 03:20:40;;;;;;;3.00;1.48;;;13.80;99.90;;;;;;5055851;28;20499;-71
2022/08/13 03:23:07;;;;;;;4.85;1.55;;;13.80;99.90;;;;;;5060559;28;20044;-71
2022/08/13 03:25:34;;;;;;;3.17;1.52;;;14.00;99.90;;;;;;5059993;28;20040;-71
2022/08/13 03:28:01;;;;;;;3.65;2.20;;;14.00;99.90;;;;;;5050275;28;20082;-71
2022/08/13 03:30:28;;;;;;;3.25;1.50;;;13.90;99.90;;;;;;5052597;28;20111;-71
2022/08/13 03:32:54;;;;;;;3.08;1.52;;;13.70;99.90;;;;;;5059205;28;20033;-71
2022/08/13 03:35:23;;;;;;;5.40;1.58;;;13.80;99.90;;;;;;5046200;28;20529;-71
2022/08/13 03:37:55;;;;;;;5.65;1.90;;;13.70;99.90;;;;;;5049097;28;20097;-71
2022/08/13 03:40:23;;;;;;;6.05;1.83;;;13.70;99.90;;;;;;5044289;28;20537;-71
2022/08/13 03:42:50;;;;;;;3.30;1.45;;;13.50;99.90;;;;;;5043193;28;20033;-71
2022/08/13 03:45:17;;;;;;;2.70;1.40;;;13.40;99.90;;;;;;5053675;28;20032;-71
2022/08/13 03:47:43;;;;;;;2.90;1.40;;;13.50;99.90;;;;;;5051247;28;20508;-71
2022/08/13 03:50:11;;;;;;;2.65;1.33;;;13.60;99.90;;;;;;5056214;28;20429;-71
2022/08/13 03:52:38;;;;;;;3.00;1.60;;;13.70;99.90;;;;;;5053526;28;20059;-72
2022/08/13 03:55:11;;;;;;;2.88;1.58;;;13.80;99.90;;;;;;5052734;28;20184;-72
2022/08/13 03:57:39;;;;;;;3.17;1.65;;;13.80;99.90;;;;;;5050183;28;20089;-72
2022/08/13 04:00:07;;;;;;;3.67;1.33;;;13.60;99.90;;;;;;5046559;28;20111;-71
2022/08/13 04:02:33;;;;;;;3.53;1.42;;;13.60;99.90;;;;;;5043441;28;20074;-72
2022/08/13 04:04:58;;;;;;;2.53;1.23;;;13.70;99.90;;;;;;5052562;28;21127;-71
2022/08/13 04:07:27;;;;;;;3.40;1.58;;;13.70;99.90;;;;;;5057110;28;20032;-71
2022/08/13 04:09:54;;;;;;;2.40;1.38;;;13.70;99.90;;;;;;5050603;28;20048;-72
2022/08/13 04:12:21;;;;;;;3.17;1.30;;;13.80;99.90;;;;;;5058650;28;20035;-71
2022/08/13 04:14:47;;;;;;;5.18;1.83;;;13.90;99.90;;;;;;5057059;28;20318;-72
2022/08/13 04:17:13;;;;;;;4.13;1.67;;;13.70;99.90;;;;;;5050525;28;20029;-71
2022/08/13 04:19:39;;;;;;;4.10;2.05;;;14.00;99.90;;;;;;5060566;28;20047;-71
2022/08/13 04:22:13;;;;;;;5.22;1.60;;;14.20;99.90;;;;;;5059937;28;20060;-71
2022/08/13 04:24:39;;;;;;;3.05;1.80;;;13.90;99.90;;;;;;5058964;28;20037;-71
2022/08/13 04:27:05;;;;;;;3.10;1.42;;;13.70;99.90;;;;;;5059863;28;20107;-72
2022/08/13 04:29:31;;;;;;;8.15;1.90;;;13.90;99.90;;;;;;5048613;28;20283;-72
2022/08/13 04:31:59;;;;;;;3.03;1.42;;;13.80;99.90;;;;;;5059243;28;20024;-71
2022/08/13 04:34:27;;;;;;;2.92;1.52;;;13.90;99.90;;;;;;5059561;28;20025;-72
2022/08/13 04:36:54;;;;;;;4.20;1.75;;;14.00;99.90;;;;;;5059729;28;20429;-72
2022/08/13 04:39:20;;;;;;;3.67;1.48;;;14.10;99.90;;;;;;5061560;28;20129;-71
2022/08/13 04:41:46;;;;;;;3.30;1.67;;;14.20;99.90;;;;;;5057156;28;20090;-71
2022/08/13 04:44:12;;;;;;;4.30;1.33;;;14.30;99.90;;;;;;5059880;28;20424;-71
2022/08/13 04:46:38;;;;;;;2.85;1.63;;;13.90;99.90;;;;;;5041359;28;20422;-72
2022/08/13 04:49:05;;;;;;;2.65;1.50;;;13.80;99.90;;;;;;5060384;28;20033;-72
2022/08/13 04:51:34;;;;;;;3.67;1.88;;;13.80;99.90;;;;;;5058732;28;20040;-71
2022/08/13 04:53:59;;;;;;;2.45;1.45;;;13.90;99.90;;;;;;5062369;28;20182;-72
2022/08/13 04:56:25;;;;;;;3.08;1.40;;;13.90;99.90;;;;;;5057641;28;20733;-72
2022/08/13 04:58:51;;;;;;;2.30;1.20;;;13.80;99.90;;;;;;5047516;28;20375;-71
2022/08/13 05:01:16;;;;;;;3.80;1.70;;;13.60;99.90;;;;;;5052653;28;20037;-71
2022/08/13 05:03:45;;;;;;;3.00;2.00;;;13.70;99.90;;;;;;5057746;28;20475;-71
2022/08/13 05:06:12;;;;;;;2.28;1.20;;;14.00;99.90;;;;;;5063794;28;20043;-72
2022/08/13 05:08:40;;;;;;;2.83;1.30;;;13.80;99.90;;;;;;5050313;28;20045;-72
2022/08/13 05:11:07;;;;;;;3.42;1.73;;;13.50;99.90;;;;;;5064933;28;20029;-72
2022/08/13 05:13:36;;;;;;;2.83;1.52;;;13.70;99.90;;;;;;5058054;28;20470;-71
2022/08/13 05:16:06;;;;;;;2.70;1.50;;;13.80;99.90;;;;;;5063997;28;20028;-71
2022/08/13 05:18:33;;;;;;;2.47;1.52;;;13.60;99.90;;;;;;5065908;28;20036;-72
2022/08/13 05:21:05;;;;;;;3.60;1.35;;;13.80;99.90;;;;;;5056757;28;20047;-72
2022/08/13 05:23:34;;;;;;;3.17;1.13;;;13.80;99.90;;;;;;5058265;28;20037;-71
2022/08/13 05:26:00;;;;;;;4.03;1.52;;;13.60;99.90;;;;;;5062114;28;20487;-71
2022/08/13 05:28:27;;;;;;;3.75;1.75;;;13.70;99.90;;;;;;5055534;28;20097;-72
2022/08/13 05:30:53;;;;;;;2.75;1.50;;;13.60;99.90;;;;;;5044163;28;20032;-70
2022/08/13 05:33:22;;;;;;;3.80;1.75;;;13.70;99.90;;;;;;5064996;28;20113;-71
2022/08/13 05:35:55;;;;;;;2.80;1.40;;;13.90;99.90;;;;;;5056434;28;20029;-72
2022/08/13 05:38:22;;;;;;;2.38;1.30;;;13.90;99.90;;;;;;5049991;28;20122;-72
2022/08/13 05:40:57;;;;;;;2.10;1.13;;;13.90;99.90;;;;;;5066773;28;20024;-71
2022/08/13 05:43:26;;;;;;;2.40;1.27;;;14.20;99.90;;;;;;5048904;28;20068;-71
2022/08/13 05:45:57;;;;;;;2.58;1.20;;;14.50;99.90;;;;;;5062298;28;20840;-71
2022/08/13 05:48:27;;;;;;;2.33;1.30;;;14.50;99.90;;;;;;5061892;28;20036;-71
2022/08/13 05:50:53;;;;;;;3.40;1.55;;;14.60;99.90;;;;;;5048682;28;20044;-71
2022/08/13 05:53:19;;;;;;;3.55;1.30;;;14.60;99.90;;;;;;5047125;28;20443;-72
2022/08/13 05:55:45;;;;;;;3.72;1.50;;;14.60;99.90;;;;;;5056603;28;20158;-71
2022/08/13 05:58:12;;;;;;;3.15;1.40;;;14.60;99.90;;;;;;5057613;28;20107;-71
2022/08/13 06:03:27;;;;;;;2.25;1.13;;;14.70;99.90;;;;;;5052929;28;20864;-73
2022/08/13 06:06:04;;;;;;;2.10;1.13;;;14.60;99.90;;;;;;5051865;28;20029;-73
2022/08/13 06:08:42;;;;;;;2.10;1.15;;;14.60;99.90;;;;;;5059846;28;20399;-73
2022/08/13 06:11:09;;;;;;;2.50;1.00;;;14.60;99.90;;;;;;5056096;28;20032;-73
2022/08/13 06:13:39;;;;;;;4.78;1.17;;;14.70;99.90;;;;;;5060959;28;20025;-73
2022/08/13 06:16:11;;;;;;;3.05;1.35;;;14.80;99.90;;;;;;5054607;28;20041;-73
2022/08/13 06:18:43;;;;;;;2.25;1.33;;;15.00;99.90;;;;;;5047591;28;20354;-72
2022/08/13 06:21:11;;;;;;;3.15;1.85;;;15.00;99.90;;;;;;5055892;28;20033;-72
2022/08/13 06:23:38;;;;;;;2.03;1.10;;;15.20;99.90;;;;;;5058107;28;20077;-72
2022/08/13 06:26:07;;;;;;;3.65;1.60;;;15.40;99.90;;;;;;5055660;28;20077;-72
2022/08/13 06:28:34;;;;;;;2.78;1.35;;;15.50;99.90;;;;;;5052455;28;20033;-73
2022/08/13 06:31:04;;;;;;;2.92;1.30;;;15.90;99.90;;;;;;5057722;28;20021;-72
2022/08/13 06:33:32;;;;;;;3.35;1.30;;;16.10;99.90;;;;;;5054102;28;20037;-73
2022/08/13 06:35:59;;;;;;;3.10;1.65;;;16.20;99.90;;;;;;5069371;28;20556;-72
2022/08/13 06:38:32;;;;;;;3.15;1.60;;;16.20;99.90;;;;;;5052350;28;20495;-73
2022/08/13 06:41:01;;;;;;;2.67;1.20;;;16.20;99.90;;;;;;5047846;28;20106;-73
2022/08/13 06:43:31;;;;;;;3.60;1.63;;;16.50;99.90;;;;;;5049512;28;20036;-72
2022/08/13 06:45:59;;;;;;;3.53;1.25;;;16.80;99.90;;;;;;5051849;28;20028;-72
2022/08/13 06:48:26;;;;;;;3.67;1.05;;;17.00;99.90;;;;;;5059568;28;20133;-73
2022/08/13 06:50:52;;;;;;;2.47;1.20;;;17.20;99.90;;;;;;5051281;28;20040;-73
2022/08/13 06:53:19;;;;;;;2.47;1.27;;;17.30;99.90;;;;;;5058037;28;20039;-73
2022/08/13 06:55:47;;;;;;;2.88;1.50;;;17.30;99.90;;;;;;5059836;28;20071;-73
2022/08/13 06:58:14;;;;;;;2.65;1.42;;;17.60;99.90;;;;;;5045429;28;20581;-73
2022/08/13 07:00:41;;;;;;;3.80;1.40;;;18.00;99.90;;;;;;5047571;28;20032;-73
2022/08/13 07:03:10;;;;;;;2.53;1.20;;;18.20;99.90;;;;;;5056277;28;20040;-73
2022/08/13 07:05:38;;;;;;;2.75;1.00;;;18.30;99.90;;;;;;5055524;28;20035;-72
2022/08/13 07:08:07;;;;;;;2.15;1.20;;;18.50;99.90;;;;;;5047992;28;20044;-72
2022/08/13 07:10:40;;;;;;;3.72;1.60;;;19.10;99.90;;;;;;5063003;28;20115;-72
2022/08/13 07:13:06;;;;;;;4.45;1.58;;;20.10;98.80;;;;;;5057016;28;20051;-72
2022/08/13 07:15:32;;;;;;;3.13;1.30;;;20.80;96.70;;;;;;5053885;28;20213;-73
2022/08/13 07:17:58;;;;;;;1.67;0.93;;;22.00;95.20;;;;;;5039770;28;20038;-73
2022/08/13 07:20:25;;;;;;;4.28;1.30;;;23.50;93.00;;;;;;5051612;28;20029;-72
2022/08/13 07:22:55;;;;;;;2.55;0.85;;;23.40;92.00;;;;;;5052223;28;20611;-73
2022/08/13 07:25:23;;;;;;;2.05;1.20;;;23.60;92.40;;;;;;5058017;28;20060;-73
2022/08/13 07:27:51;;;;;;;2.40;1.35;;;23.30;91.90;;;;;;5050361;28;20028;-74
2022/08/13 07:30:19;;;;;;;2.25;1.13;;;23.80;91.50;;;;;;5052987;28;20516;-73
2022/08/13 07:32:45;;;;;;;4.57;1.40;;;23.40;91.50;;;;;;5057911;28;20114;-73
2022/08/13 07:35:11;;;;;;;2.38;1.15;;;23.70;91.20;;;;;;5053938;28;20090;-73
2022/08/13 07:37:41;;;;;;;3.28;1.27;;;24.30;90.50;;;;;;5058555;28;20039;-72
2022/08/13 07:40:08;;;;;;;2.80;1.30;;;24.30;90.50;;;;;;5055870;28;20024;-73
2022/08/13 07:42:41;;;;;;;2.28;1.50;;;24.10;90.70;;;;;;5043656;28;20128;-72
2022/08/13 07:45:11;;;;;;;2.07;1.10;;;24.30;90.90;;;;;;5056546;28;20057;-73
2022/08/13 07:47:40;;;;;;;1.80;1.08;;;24.60;90.00;;;;;;5051186;28;20283;-72
2022/08/13 07:50:10;;;;;;;2.08;1.33;;;25.60;90.10;;;;;;5066587;28;20060;-72
2022/08/13 07:52:38;;;;;;;3.10;1.33;;;22.70;91.90;;;;;;5064565;28;20029;-72
2022/08/13 07:55:07;;;;;;;3.70;1.50;;;20.70;94.80;;;;;;5046913;28;20021;-72
2022/08/13 07:57:33;;;;;;;3.10;1.60;;;19.60;97.60;;;;;;5065515;28;20375;-72
2022/08/13 07:59:59;;;;;;;2.75;1.52;;;19.00;99.40;;;;;;5061298;28;20067;-72
2022/08/13 08:02:26;;;;;;;4.95;1.88;;;18.50;99.90;;;;;;5054840;28;20069;-72
2022/08/13 08:04:55;;;;;;;2.78;1.63;;;18.50;99.90;;;;;;5057730;28;20083;-72
2022/08/13 08:07:22;;;;;;;2.28;1.30;;;18.60;99.90;;;;;;5059388;28;20060;-72
2022/08/13 08:09:50;;;;;;;3.85;1.42;;;18.50;99.90;;;;;;5060966;28;20132;-72
2022/08/13 08:12:35;;;;;;;3.83;1.38;;;18.50;99.90;;;;;;5052793;28;20032;-72
2022/08/13 08:15:10;;;;;;;;;;;18.60;99.90;;;;;;5052906;28;20039;-72
2022/08/13 08:17:36;;;;;;;3.03;1.80;;;18.70;99.90;;;;;;5053985;28;19909;-72
2022/08/13 08:20:05;;;;;;;2.80;1.45;;;18.80;99.90;;;;;;5064223;28;20493;-74
2022/08/13 08:25:55;;;;;;;5.03;1.50;;;18.80;99.90;;;;;;5055988;28;20043;-73
2022/08/13 08:28:21;;;;;;;2.60;1.60;;;19.10;99.90;;;;;;5049001;28;20039;-73
2022/08/13 08:30:48;;;;;;;3.38;1.45;;;20.80;98.30;;;;;;5058851;28;20037;-72
2022/08/13 08:33:14;;;;;;;2.75;1.52;;;22.10;96.00;;;;;;5058835;28;20027;-72
2022/08/13 08:35:40;;;;;;;5.95;2.17;;;23.10;94.80;;;;;;5060224;28;20033;-72
2022/08/13 08:43:37;;;;;;;3.30;1.40;;;23.90;94.70;;;;;;5067359;28;20075;-71
2022/08/13 08:46:05;;;;;;;1.98;1.00;;;24.40;93.90;;;;;;5061733;28;20108;-72
2022/08/13 08:48:32;;;;;;;4.05;1.77;;;24.30;92.90;;;;;;5059796;28;20029;-73
2022/08/13 08:50:59;;;;;;;3.95;1.08;;;24.90;92.00;;;;;;5066646;28;20470;-72
2022/08/13 08:53:27;;;;;;;2.60;1.45;;;23.90;91.70;;;;;;5070205;28;20029;-72
2022/08/13 08:55:53;;;;;;;2.75;1.75;;;23.40;94.30;;;;;;5052328;28;20025;-72
2022/08/13 08:58:34;;;;;;;3.20;1.58;;;23.00;95.20;;;;;;5049146;28;20574;-73
2022/08/13 09:01:00;;;;;;;2.28;1.20;;;22.20;95.40;;;;;;5052211;28;20063;-73
2022/08/13 09:03:27;;;;;;;2.45;1.23;;;21.60;96.00;;;;;;5064897;28;20037;-73
2022/08/13 09:05:53;;;;;;;2.53;1.40;;;21.00;95.90;;;;;;5058039;28;20041;-72
2022/08/13 09:08:20;;;;;;;2.25;1.25;;;21.70;96.10;;;;;;5050585;28;20063;-72
2022/08/13 09:10:49;;;;;;;2.97;1.40;;;21.60;96.80;;;;;;5050749;28;20029;-72
2022/08/13 09:13:19;;;;;;;3.10;1.50;;;21.10;94.50;;;;;;5069696;28;20021;-73
2022/08/13 09:15:48;;;;;;;4.68;1.58;;;21.20;94.90;;;;;;5070630;28;20055;-72
2022/08/13 09:18:17;;;;;;;2.78;1.30;;;21.20;95.00;;;;;;5070510;28;20027;-72
2022/08/13 09:20:43;;;;;;;2.75;1.30;;;21.30;95.40;;;;;;5070561;28;20048;-72
2022/08/13 09:23:13;;;;;;;3.45;1.30;;;21.60;95.60;;;;;;5054026;28;20391;-73
2022/08/13 09:25:48;;;;;;;3.20;1.42;;;21.30;94.90;;;;;;5050252;28;20037;-72
2022/08/13 09:28:22;;;;;;;2.35;1.38;;;21.30;96.40;;;;;;5058200;28;20033;-73
2022/08/13 09:30:50;;;;;;;3.13;1.52;;;21.50;95.20;;;;;;5055983;28;20025;-72
2022/08/13 09:33:17;;;;;;;3.92;1.48;;;21.70;95.40;;;;;;5050109;28;20037;-72
2022/08/13 09:35:44;;;;;;;3.22;1.63;;;21.40;94.50;;;;;;5050247;28;20033;-73
2022/08/13 09:38:10;;;;;;;2.63;1.33;;;21.80;95.50;;;;;;5049500;28;20032;-72
2022/08/13 09:40:51;;;;;;;2.47;1.42;;;21.70;94.80;;;;;;5049962;28;20040;-72
2022/08/13 09:43:31;;;;;;;2.75;1.27;;;22.10;94.60;;;;;;5049504;28;20039;-72
2022/08/13 09:45:57;;;;;;;1.90;1.05;;;22.60;94.40;;;;;;5049102;28;20044;-72
2022/08/13 09:48:28;;;;;;;4.20;1.42;;;22.30;93.20;;;;;;5050693;28;20511;-73
2022/08/13 09:50:54;;;;;;;2.33;1.30;;;22.50;94.30;;;;;;5058331;28;20024;-72
2022/08/13 09:53:20;;;;;;;2.03;1.13;;;23.00;93.50;;;;;;5069516;28;20039;-73
2022/08/13 09:55:45;;;;;;;3.17;1.55;;;23.30;93.30;;;;;;5069683;28;20512;-72
2022/08/13 09:58:11;;;;;;;3.08;1.25;;;23.00;93.10;;;;;;5050755;28;20032;-72
2022/08/13 10:00:40;;;;;;;2.85;1.60;;;23.20;93.10;;;;;;5050228;28;20033;-73
2022/08/13 10:03:10;;;;;;;4.55;1.60;;;23.10;93.10;;;;;;5057168;28;20102;-73
2022/08/13 10:05:36;;;;;;;6.45;1.30;;;23.10;93.80;;;;;;5053995;28;20029;-72
2022/08/13 10:08:12;;;;;;;2.08;1.17;;;23.30;93.50;;;;;;5048839;28;20540;-72
2022/08/13 10:10:38;;;;;;;3.17;1.50;;;23.70;93.50;;;;;;5048759;28;20601;-73
2022/08/13 10:13:04;;;;;;;2.15;1.15;;;24.00;92.80;;;;;;5048394;28;20083;-72
2022/08/13 10:15:30;;;;;;;2.88;1.08;;;24.10;92.10;;;;;;5049034;28;20047;-72
2022/08/13 10:18:02;;;;;;;3.20;1.40;;;24.00;93.40;;;;;;5056190;28;20045;-72
2022/08/13 10:20:48;;;;;;;3.60;1.25;;;23.60;93.30;;;;;;5049396;28;20033;-72
2022/08/13 10:23:15;;;;;;;2.05;1.10;;;23.40;92.40;;;;;;5051367;28;20040;-73
2022/08/13 10:25:43;;;;;;;3.47;1.50;;;23.40;92.80;;;;;;5068516;28;20496;-72
2022/08/13 10:28:24;;;;;;;3.45;1.40;;;23.40;92.60;;;;;;5068754;28;20478;-72
2022/08/13 10:30:50;;;;;;;2.33;1.27;;;23.40;92.50;;;;;;5049224;28;20029;-72
2022/08/13 10:33:17;;;;;;;4.07;1.70;;;23.80;93.20;;;;;;5048821;28;20053;-72
2022/08/13 10:35:52;;;;;;;5.95;1.60;;;23.90;93.50;;;;;;5048896;28;20108;-73
2022/08/13 10:38:20;;;;;;;3.20;1.30;;;24.10;92.80;;;;;;5048078;28;20021;-73
2022/08/13 10:40:47;;;;;;;2.42;1.20;;;24.10;92.20;;;;;;5057127;28;20446;-72
2022/08/13 10:43:14;;;;;;;3.55;1.70;;;24.30;92.20;;;;;;5068340;28;20072;-73
2022/08/13 10:45:42;;;;;;;2.33;1.30;;;24.00;92.20;;;;;;5068568;28;20119;-73
2022/08/13 10:48:11;;;;;;;2.80;1.50;;;24.50;92.50;;;;;;5067662;28;20034;-73
2022/08/13 10:50:38;;;;;;;6.78;1.77;;;24.50;92.40;;;;;;5067983;28;20033;-72
2022/08/13 10:53:03;;;;;;;3.05;1.38;;;24.80;92.40;;;;;;5068305;28;20032;-73
2022/08/13 10:55:29;;;;;;;2.42;1.27;;;25.30;91.40;;;;;;5050641;28;20684;-73
2022/08/13 10:57:55;;;;;;;3.70;1.50;;;25.30;90.60;;;;;;5066997;28;20607;-73
2022/08/13 11:00:21;;;;;;;2.08;1.23;;;24.90;91.10;;;;;;5068749;28;20028;-72
2022/08/13 11:02:49;;;;;;;5.10;1.42;;;24.90;91.40;;;;;;5063367;28;20047;-73
2022/08/13 11:05:16;;;;;;;2.47;1.17;;;25.00;90.50;;;;;;5067874;28;21674;-73
2022/08/13 11:07:47;;;;;;;3.00;1.20;;;25.20;91.00;;;;;;5068483;28;20502;-73
2022/08/13 11:10:13;;;;;;;5.97;1.50;;;25.30;90.60;;;;;;5068341;28;20430;-73
2022/08/13 11:12:50;;;;;;;8.07;1.35;;;25.00;90.60;;;;;;5068243;28;20043;-72
2022/08/13 11:15:20;;;;;;;2.78;1.33;;;25.40;90.80;;;;;;5048522;28;20040;-73
2022/08/13 11:17:48;;;;;;;3.03;1.40;;;25.70;89.50;;;;;;5047577;28;20108;-73
2022/08/13 11:20:17;;;;;;;4.70;1.52;;;25.80;90.40;;;;;;5061707;28;20143;-72
2022/08/13 11:22:43;;;;;;;2.83;1.35;;;25.70;90.70;;;;;;5047534;28;20197;-73
2022/08/13 11:25:09;;;;;;;2.53;1.25;;;25.80;91.20;;;;;;5048105;28;20524;-72
2022/08/13 11:27:35;;;;;;;2.70;1.67;;;25.70;90.40;;;;;;5048411;28;20399;-72
2022/08/13 11:30:01;;;;;;;2.53;1.00;;;25.80;91.50;;;;;;5067648;28;20026;-72
2022/08/13 11:32:27;;;;;;;2.28;1.10;;;25.70;89.50;;;;;;5061881;28;20033;-73
2022/08/13 11:34:53;;;;;;;2.75;1.20;;;25.70;90.70;;;;;;5048001;28;20386;-73
2022/08/13 11:37:18;;;;;;;3.17;1.30;;;25.70;86.70;;;;;;5050402;28;20467;-73
2022/08/13 11:39:44;;;;;;;4.38;1.50;;;25.80;87.00;;;;;;5048162;28;20617;-72
2022/08/13 11:42:09;;;;;;;2.78;1.05;;;25.70;87.30;;;;;;5048111;28;20119;-73
2022/08/13 11:44:35;;;;;;;4.70;1.23;;;25.70;84.90;;;;;;5047494;28;20044;-73
2022/08/13 11:47:01;;;;;;;4.65;1.38;;;25.60;88.10;;;;;;5047844;28;20039;-72
2022/08/13 11:49:26;;;;;;;3.30;1.10;;;25.90;90.30;;;;;;5048148;28;20475;-72
2022/08/13 11:51:52;;;;;;;2.28;1.33;;;26.00;87.00;;;;;;5064088;28;20031;-73
2022/08/13 11:54:22;;;;;;;1.67;0.98;;;26.00;84.80;;;;;;5067078;28;20043;-73
2022/08/13 11:56:48;;;;;;;2.85;1.00;;;25.80;84.30;;;;;;5064941;28;20390;-72
2022/08/13 11:59:13;;;;;;;3.30;1.20;;;26.10;86.90;;;;;;5067805;28;20036;-73
2022/08/13 12:01:39;;;;;;;2.15;1.10;;;26.40;86.70;;;;;;5053192;28;20512;-73
2022/08/13 12:04:05;;;;;;;2.17;0.82;;;26.50;86.70;;;;;;5048792;28;20028;-73
2022/08/13 12:06:30;;;;;;;2.13;1.00;;;26.80;84.80;;;;;;5047388;28;20040;-72
2022/08/13 12:08:56;;;;;;;2.30;1.23;;;26.70;87.30;;;;;;5046927;28;20077;-72
2022/08/13 12:11:22;;;;;;;2.10;1.00;;;26.90;86.80;;;;;;5055670;28;20028;-72
2022/08/13 12:13:48;;;;;;;5.80;1.13;;;27.00;87.00;;;;;;5067652;28;20033;-73
2022/08/13 12:16:14;;;;;;;1.60;0.95;;;27.30;82.70;;;;;;5067130;28;20672;-73
2022/08/13 12:18:39;;;;;;;2.92;0.90;;;26.90;81.00;;;;;;5058192;28;20095;-72
2022/08/13 12:21:05;;;;;;;2.10;1.15;;;26.30;79.50;;;;;;5047118;28;20036;-73
2022/08/13 12:23:31;;;;;;;2.88;1.30;;;26.50;84.40;;;;;;5046990;28;20036;-73
2022/08/13 12:25:56;;;;;;;2.30;1.02;;;27.10;85.80;;;;;;5047366;28;20135;-73
2022/08/13 12:28:27;;;;;;;2.45;1.00;;;27.70;84.90;;;;;;5055601;28;20386;-73
2022/08/13 12:30:56;;;;;;;3.35;1.13;;;27.70;84.40;;;;;;5067135;28;20133;-73
2022/08/13 12:33:23;;;;;;;2.00;0.98;;;27.30;81.10;;;;;;5066688;28;20036;-73
2022/08/13 12:35:50;;;;;;;1.88;1.13;;;27.20;80.20;;;;;;5066610;28;20029;-73
2022/08/13 12:38:15;;;;;;;2.67;1.20;;;27.20;82.60;;;;;;5025738;28;20407;-73
2022/08/13 12:40:43;;;;;;;1.52;0.95;;;27.10;81.20;;;;;;5043295;28;20070;-73
2022/08/13 12:43:09;;;;;;;3.97;1.25;;;27.30;83.30;;;;;;5049822;28;20036;-73
2022/08/13 12:45:36;;;;;;;2.25;1.10;;;27.20;80.70;;;;;;5066807;28;20032;-73
2022/08/13 12:48:14;;;;;;;1.70;0.85;;;27.00;81.50;;;;;;5067076;28;20184;-73
2022/08/13 12:50:42;;;;;;;2.40;1.00;;;27.40;79.40;;;;;;5067545;28;20447;-73
2022/08/13 12:53:08;;;;;;;2.33;1.00;;;27.50;79.30;;;;;;5044991;28;20441;-73
2022/08/13 12:55:35;;;;;;;4.22;1.08;;;27.70;78.70;;;;;;5067074;28;20047;-73
2022/08/13 12:58:14;;;;;;;1.30;0.75;;;28.00;83.60;;;;;;5067170;28;20032;-73
2022/08/13 13:00:42;;;;;;;1.50;0.80;;;27.80;79.10;;;;;;5055295;28;20166;-73
2022/08/13 13:03:07;;;;;;;1.38;0.85;;;27.50;81.40;;;;;;5050522;28;20049;-73
2022/08/13 13:05:33;;;;;;;1.33;0.65;;;27.70;81.20;;;;;;5047373;28;20044;-73
2022/08/13 13:07:59;;;;;;;1.33;0.70;;;27.60;79.20;;;;;;5046695;28;20399;-73
2022/08/13 13:10:24;;;;;;;2.28;1.02;;;27.80;83.80;;;;;;5051481;28;20035;-72
2022/08/13 13:12:50;;;;;;;8.27;1.73;;;28.00;81.90;;;;;;5066200;28;20028;-72